Detall de PIREP

Printer-friendly versionPDF version

[2011/08/01 08:17:00]
Flight IATA:CT1005
Pilot Number:011
Company ICAO:CAT
Aircraft Type:F28/A
PAX:85
Departing Airport: EGGP
Destination Airport: EBLG
Alternate Airport:EDKK
Online: VATSIM
Route:NANTI L10 HON UL186 BIG UL9 KONAN UL607 KOSKY
Flight Level:F290
No Slew and time accel
No pause
Crash detect
Detect pilot in Cockpit between each 30 and 45 minutes
08:17 Zero fuel Weight: 60157 Lbs, Fuel Weight: 10806 Lbs
08:17 VATSIM:EGGP 010750Z 18006KT 150V210 7000 FEW010 BKN042 19/16 Q1011
08:17 VATSIM:EBLG 010750Z 17006KT 9999 BKN026 14/10 Q1017 NOSIG
08:18 Parking Brakes off
08:26 Take-off
08:26 Take off Weight: 70525 Lbs
08:26 Wind: 185º @ 006 Knots Heading: 263º
08:26 POS N53º 19´ 59´´ W002º 51´ 28´´
08:26 Gear Up: 156 Knots
08:26 Flaps:2 at 156 Knots
08:27 Flaps:1 at 197 Knots
08:27 Flaps:0 at 200 Knots
08:41 Wind:161º@031 Knots Heading: 146º Ground Speed: 369Knots Altitude 25580 ft
08:45 TOC
08:45 Fuel Weight: 8182 Lb
08:59 TOD
08:59 Fuel Weight: 7074 Lb
09:34 Flaps:1 at 217 Knots
09:34 Flaps:2 at 203 Knots
09:35 Flaps:3 at 181 Knots
09:35 Gear Down: 180 Knots
09:38 Flaps:4 at 162 Knots
09:40 Flaps:5 at 149 Knots
09:44 TouchDown:Rate -207 ft/min Speed: 119 Knots
09:44 VATSIM:EBLG 010920Z 14004KT 100V200 9999 BKN026 17/09 Q1017 NOSIG
09:44 Land
09:44 Wind:141º@004 Knots
09:44 Heading: 046º
09:44 Flight Duration: 01:18
09:44 Landing Weight: 64444 Lbs
09:44 POS N50º 38´ 22´´ E005º 26´ 51´´
09:46 Parking brakes on
09:46 Block to Block Duration: 01:28
09:46 Final Fuel: 4204 Lbls
09:46 Spent Fuel: 6602 Lbls
09:46 Flight Length: 91 NM
09:46 TOD Land Length: 00 NM

Exportar CSV

Powered by Drupal - Modified by Danger4k